Time;durP1;ratioP1;P1;durP2;ratioP2;P2;SDS_P1;SDS_P2;PMS_P1;PMS_P2;Temp;Humidity;BMP_temperature;BMP_pressure;BME280_temperature;BME280_humidity;BME280_pressure;Samples;Min_cycle;Max_cycle;Signal;HPM_P1;HPM_P2
2022/07/15 00:00:56;;;;;;;19.35;7.35;;;;;;;24.66;48.78;100030.91;5053922;28;20211;-77
2022/07/15 00:03:23;;;;;;;19.45;9.93;;;;;;;24.49;49.37;100028.13;5018865;28;20237;-75
2022/07/15 00:05:50;;;;;;;23.25;9.82;;;;;;;24.42;51.27;100029.31;5018319;28;20191;-76
2022/07/15 00:08:17;;;;;;;8.73;5.70;;;;;;;24.33;57.98;100025.25;5053898;28;20210;-76
2022/07/15 00:10:44;;;;;;;12.55;5.18;;;;;;;24.28;86.96;100016.66;5054073;28;20200;-76
2022/07/15 00:13:10;;;;;;;15.10;4.90;;;;;;;23.93;100.00;99993.38;5054029;28;20195;-76
2022/07/15 00:15:37;;;;;;;7.47;4.75;;;;;;;23.90;100.00;100015.53;5053428;28;20200;-76
2022/07/15 00:18:06;;;;;;;6.07;4.25;;;;;;;23.85;100.00;100017.50;5053653;28;20204;-76
2022/07/15 00:20:34;;;;;;;8.80;4.30;;;;;;;23.65;100.00;100020.94;5053534;28;20203;-77
2022/07/15 00:23:02;;;;;;;8.23;3.78;;;;;;;23.60;100.00;100007.03;5053286;28;20982;-77
2022/07/15 00:25:29;;;;;;;4.97;3.95;;;;;;;23.51;100.00;100014.44;5052586;28;20675;-76
2022/07/15 00:27:58;;;;;;;6.97;4.78;;;;;;;23.48;100.00;100017.22;5053377;28;20211;-75
2022/07/15 00:30:29;;;;;;;9.55;4.50;;;;;;;23.40;100.00;100021.94;5053582;28;20657;-76
2022/07/15 00:32:55;;;;;;;9.95;4.05;;;;;;;23.27;100.00;100007.44;5053027;28;20278;-76
2022/07/15 00:35:23;;;;;;;6.50;4.75;;;;;;;23.32;100.00;100022.22;5052465;28;20734;-77
2022/07/15 00:37:50;;;;;;;6.75;3.95;;;;;;;23.29;100.00;100021.47;5053200;28;20558;-76
2022/07/15 00:40:18;;;;;;;5.63;3.75;;;;;;;23.21;100.00;100017.34;5052551;28;20238;-76
2022/07/15 00:42:45;;;;;;;4.68;3.30;;;;;;;23.23;100.00;100028.72;5052710;28;20210;-76
2022/07/15 00:45:12;;;;;;;5.05;3.08;;;;;;;23.09;97.69;100023.06;5052649;28;20199;-76
2022/07/15 00:47:39;;;;;;;3.03;2.70;;;;;;;23.06;96.41;100025.84;5052847;28;20199;-76
2022/07/15 00:50:07;;;;;;;3.58;3.28;;;;;;;23.13;95.10;100022.03;5053049;28;20199;-76
2022/07/15 00:52:36;;;;;;;5.30;3.10;;;;;;;23.06;94.80;100012.63;5052588;28;20199;-76
2022/07/15 00:55:06;;;;;;;3.97;2.75;;;;;;;23.19;93.45;100021.81;5051763;28;20230;-78
2022/07/15 00:57:37;;;;;;;5.30;3.35;;;;;;;23.12;95.19;100022.97;5033139;28;20254;-75
2022/07/15 01:00:06;;;;;;;4.07;3.35;;;;;;;23.08;99.33;100021.34;5051841;28;20219;-78
2022/07/15 01:02:34;;;;;;;4.00;3.22;;;;;;;23.02;100.00;100028.66;5052370;28;20203;-75
2022/07/15 01:05:04;;;;;;;11.43;4.18;;;;;;;22.77;100.00;99986.38;5052295;28;20203;-76
2022/07/15 01:07:31;;;;;;;11.82;6.38;;;;;;;22.94;100.00;100020.13;5052968;28;20195;-75
2022/07/15 01:09:59;;;;;;;10.40;5.07;;;;;;;22.95;92.98;100025.38;5052996;28;20679;-75
2022/07/15 01:12:27;;;;;;;8.13;4.95;;;;;;;22.85;97.37;100026.63;5052999;28;20207;-77
2022/07/15 01:14:54;;;;;;;10.25;4.35;;;;;;;22.83;93.14;100028.44;5052420;28;20214;-76
2022/07/15 01:17:21;;;;;;;7.90;5.55;;;;;;;22.79;91.36;100016.28;5052822;28;20566;-76
2022/07/15 01:19:47;;;;;;;12.30;6.60;;;;;;;22.67;92.32;100007.00;5051906;28;20215;-75
2022/07/15 01:22:16;;;;;;;17.13;7.15;;;;;;;22.66;91.45;99999.06;5052412;28;20217;-75
2022/07/15 01:24:42;;;;;;;14.90;7.30;;;;;;;22.64;91.44;100014.13;5051443;28;20318;-77
2022/07/15 01:27:09;;;;;;;13.23;7.15;;;;;;;22.63;91.34;100013.28;5051790;28;20200;-75
2022/07/15 01:29:36;;;;;;;26.75;8.27;;;;;;;22.15;92.61;99948.94;5052429;28;20195;-76
2022/07/15 01:32:03;;;;;;;15.45;7.70;;;;;;;22.62;92.83;100015.94;5052425;28;20672;-76
2022/07/15 01:34:30;;;;;;;12.00;5.55;;;;;;;22.54;91.77;100020.66;5052253;28;20199;-76
2022/07/15 01:36:56;;;;;;;14.32;6.07;;;;;;;22.54;91.73;100015.38;5052292;28;20207;-76
2022/07/15 01:39:25;;;;;;;8.73;5.57;;;;;;;22.57;91.87;100017.91;5051247;28;20224;-76
2022/07/15 01:41:52;;;;;;;9.63;6.47;;;;;;;22.48;92.45;100011.16;5016768;28;20192;-76
2022/07/15 01:44:19;;;;;;;10.40;6.43;;;;;;;22.43;94.32;100006.97;5052066;28;20195;-76
2022/07/15 01:46:45;;;;;;;12.05;6.45;;;;;;;22.43;96.03;100010.47;5052123;28;20203;-76
2022/07/15 01:49:25;;;;;;;13.32;6.90;;;;;;;22.43;97.49;100007.81;5051746;28;20263;-77
2022/07/15 01:51:54;;;;;;;14.50;7.38;;;;;;;22.41;99.88;100009.63;5051898;28;20265;-77
2022/07/15 01:54:21;;;;;;;19.38;7.50;;;;;;;22.43;100.00;100001.69;5051586;28;20291;-76
2022/07/15 01:56:50;;;;;;;17.95;8.35;;;;;;;22.29;100.00;100004.78;5051443;28;20203;-76
2022/07/15 01:59:17;;;;;;;15.20;7.35;;;;;;;22.05;100.00;99979.19;5051211;28;20230;-76
2022/07/15 02:01:45;;;;;;;16.23;7.22;;;;;;;22.07;100.00;99980.88;5051312;28;20219;-76
2022/07/15 02:04:13;;;;;;;15.60;8.50;;;;;;;22.18;100.00;100007.78;5051585;28;20198;-77
2022/07/15 02:06:39;;;;;;;15.18;7.20;;;;;;;22.18;100.00;100007.78;5051615;28;20655;-76
2022/07/15 02:09:07;;;;;;;18.08;7.28;;;;;;;21.97;100.00;99990.03;5016507;28;20211;-77
2022/07/15 02:11:34;;;;;;;15.48;7.00;;;;;;;22.06;100.00;100013.47;5051721;28;20223;-76
2022/07/15 02:14:02;;;;;;;18.63;7.70;;;;;;;22.06;100.00;99996.75;5051264;28;20204;-77
2022/07/15 02:16:30;;;;;;;15.02;7.25;;;;;;;22.01;100.00;99994.25;5032063;28;20206;-77
2022/07/15 02:18:57;;;;;;;16.08;6.55;;;;;;;22.02;100.00;100010.97;5043071;28;20203;-76
2022/07/15 02:21:24;;;;;;;14.35;6.72;;;;;;;21.85;100.00;99976.31;5051965;28;20286;-76
2022/07/15 02:23:51;;;;;;;7.95;5.20;;;;;;;21.97;100.00;99995.31;5050634;28;20203;-76
2022/07/15 02:26:17;;;;;;;9.82;5.22;;;;;;;21.96;99.12;99990.94;5051141;28;20191;-75
2022/07/15 02:28:44;;;;;;;7.90;4.72;;;;;;;21.95;98.06;99991.84;5051312;28;20208;-74
2022/07/15 02:31:13;;;;;;;16.17;4.90;;;;;;;21.98;95.95;99970.59;5050871;28;20211;-78
2022/07/15 02:33:40;;;;;;;8.57;4.22;;;;;;;22.15;92.90;99991.19;5050577;28;20206;-77
2022/07/15 02:36:08;;;;;;;12.00;4.50;;;;;;;22.25;92.22;99997.88;5050553;28;20192;-76
2022/07/15 02:38:34;;;;;;;7.10;4.20;;;;;;;22.23;90.59;99979.44;5051047;28;21023;-75
2022/07/15 02:41:02;;;;;;;6.95;3.90;;;;;;;22.42;86.78;99999.94;5051161;28;20228;-76
2022/07/15 02:43:29;;;;;;;8.50;4.38;;;;;;;22.36;86.76;100008.09;5050690;28;20203;-76
2022/07/15 02:45:56;;;;;;;9.18;4.60;;;;;;;22.43;84.46;100004.31;5031253;28;20668;-76
2022/07/15 02:48:24;;;;;;;7.88;3.85;;;;;;;22.39;85.15;100005.34;5048949;28;20204;-76
2022/07/15 02:50:51;;;;;;;4.65;3.58;;;;;;;22.14;85.81;99989.47;5051219;28;20204;-75
2022/07/15 02:53:20;;;;;;;8.95;4.07;;;;;;;21.99;86.75;99948.56;5051029;28;20230;-76
2022/07/15 02:55:48;;;;;;;10.15;4.13;;;;;;;22.39;85.19;100000.03;5050815;28;20199;-75
2022/07/15 02:58:15;;;;;;;14.23;3.83;;;;;;;22.40;83.85;99996.50;5050937;28;20200;-75
2022/07/15 03:00:42;;;;;;;7.43;3.45;;;;;;;22.37;84.29;100001.84;5050792;28;20227;-75
2022/07/15 03:03:09;;;;;;;6.68;3.35;;;;;;;22.42;80.87;100002.56;5050415;28;20210;-76
2022/07/15 03:05:37;;;;;;;9.05;3.33;;;;;;;22.37;78.97;99978.09;5050567;28;20214;-76
2022/07/15 03:08:04;;;;;;;6.63;2.97;;;;;;;22.62;76.86;99997.44;5050310;28;20206;-76
2022/07/15 03:10:31;;;;;;;15.52;4.65;;;;;;;22.63;77.89;100004.47;5050522;28;20200;-76
2022/07/15 03:12:57;;;;;;;11.45;4.18;;;;;;;22.63;81.66;100001.81;5050446;28;20218;-76
2022/07/15 03:15:24;;;;;;;9.85;5.28;;;;;;;22.66;87.00;100009.66;5050671;28;20191;-76
2022/07/15 03:17:51;;;;;;;7.78;4.93;;;;;;;22.60;92.45;100004.59;5050212;28;20191;-76
2022/07/15 03:20:18;;;;;;;8.98;4.05;;;;;;;22.62;88.78;99994.81;5050236;28;20230;-75
2022/07/15 03:22:46;;;;;;;6.82;4.40;;;;;;;22.83;83.49;100012.56;5050299;28;20195;-77
2022/07/15 03:25:13;;;;;;;9.73;5.35;;;;;;;22.94;94.78;100005.13;5031827;28;20275;-76
2022/07/15 03:27:40;;;;;;;12.95;6.38;;;;;;;23.23;99.32;99983.75;5050604;28;20214;-76
2022/07/15 03:30:08;;;;;;;12.00;6.05;;;;;;;23.68;100.00;99988.19;5050889;28;20208;-76
2022/07/15 03:32:35;;;;;;;11.13;5.65;;;;;;;24.16;100.00;99996.81;5013843;28;20569;-76
2022/07/15 03:35:02;;;;;;;18.65;8.18;;;;;;;24.48;100.00;100002.53;5050838;28;20203;-76
2022/07/15 03:37:28;;;;;;;18.63;7.80;;;;;;;24.92;91.72;99990.00;5050475;28;20212;-75
2022/07/15 03:39:57;;;;;;;12.48;7.53;;;;;;;25.27;93.74;100005.16;5050778;28;20222;-75
2022/07/15 03:42:23;;;;;;;14.52;7.88;;;;;;;25.41;89.65;99992.13;5050504;28;20200;-78
2022/07/15 03:44:50;;;;;;;14.90;8.25;;;;;;;25.94;86.66;99997.53;5050830;28;20212;-77
2022/07/15 03:47:17;;;;;;;16.90;8.10;;;;;;;26.47;82.50;100004.66;5050659;28;20203;-77
2022/07/15 03:49:44;;;;;;;19.27;8.77;;;;;;;27.14;78.64;100011.75;5050742;28;20213;-78
2022/07/15 03:52:11;;;;;;;16.95;8.52;;;;;;;27.96;72.21;100019.56;5050850;28;20203;-75
2022/07/15 03:54:37;;;;;;;15.57;8.73;;;;;;;28.17;68.91;100019.28;5050360;28;20235;-76
2022/07/15 03:57:06;;;;;;;20.98;8.80;;;;;;;28.53;66.46;100022.47;5050913;28;20199;-77
2022/07/15 03:59:33;;;;;;;16.08;9.60;;;;;;;28.21;66.53;100010.16;5050514;28;20206;-75
2022/07/15 04:01:59;;;;;;;19.83;9.30;;;;;;;28.28;66.23;100000.88;5050590;28;20679;-76
2022/07/15 04:04:26;;;;;;;22.83;8.95;;;;;;;28.61;65.45;100006.84;5050307;28;20210;-76
2022/07/15 04:06:53;;;;;;;13.70;8.15;;;;;;;28.82;64.76;100000.25;5050450;28;20199;-76
2022/07/15 04:09:20;;;;;;;27.35;9.90;;;;;;;29.35;61.32;99986.25;5050290;28;20678;-77
2022/07/15 04:11:47;;;;;;;20.08;10.10;;;;;;;29.81;58.83;100000.16;5050704;28;20231;-76
2022/07/15 04:14:17;;;;;;;22.70;11.00;;;;;;;30.01;57.91;100012.25;5050226;28;20202;-77
2022/07/15 04:16:44;;;;;;;16.65;10.27;;;;;;;30.35;57.84;100010.84;5017695;28;20198;-78
2022/07/15 04:19:11;;;;;;;22.33;10.73;;;;;;;30.73;56.54;100016.28;5053832;28;20203;-76
2022/07/15 04:21:38;;;;;;;18.25;11.13;;;;;;;31.18;54.47;100010.41;5053628;28;20714;-76
2022/07/15 04:24:06;;;;;;;22.35;11.43;;;;;;;31.71;51.95;100025.34;5053894;28;20199;-77
2022/07/15 04:26:32;;;;;;;23.13;12.38;;;;;;;31.61;49.43;99941.16;5053471;28;20578;-77
2022/07/15 04:28:59;;;;;;;34.38;12.95;;;;;;;32.51;48.26;100018.44;5053761;28;20199;-76
2022/07/15 04:31:28;;;;;;;28.42;13.40;;;;;;;32.92;46.36;100028.69;5053482;28;20203;-74
2022/07/15 04:33:54;;;;;;;33.20;13.63;;;;;;;33.20;45.72;100027.41;5018643;28;20195;-75
2022/07/15 04:36:21;;;;;;;32.03;12.73;;;;;;;33.23;45.46;100027.16;5028093;28;20194;-74
2022/07/15 04:38:48;;;;;;;42.35;13.20;;;;;;;33.40;45.84;100030.19;5058720;28;20207;-75
2022/07/15 04:41:15;;;;;;;34.25;13.30;;;;;;;33.75;45.44;100024.69;5061521;28;20635;-74
2022/07/15 04:43:41;;;;;;;23.63;12.18;;;;;;;33.86;45.05;99999.56;5064156;28;20195;-75
2022/07/15 04:46:08;;;;;;;27.45;11.02;;;;;;;34.11;42.26;100026.16;5059627;28;20656;-75
2022/07/15 04:51:21;;;;;;;31.60;10.07;;;;;;;34.04;43.39;100042.94;5024058;28;20291;-75
2022/07/15 04:53:48;;;;;;;30.50;11.25;;;;;;;33.99;43.25;100037.09;5061053;28;20230;-76
2022/07/15 04:56:16;;;;;;;31.58;10.60;;;;;;;34.02;43.42;100036.84;5052542;28;20265;-76
2022/07/15 04:58:43;;;;;;;28.00;10.88;;;;;;;34.09;43.79;100035.34;5052934;28;20202;-75
2022/07/15 05:01:09;;;;;;;31.77;11.23;;;;;;;34.19;42.92;100033.63;5052470;28;20234;-77
2022/07/15 05:03:38;;;;;;;31.40;11.05;;;;;;;34.42;42.32;100019.09;5051914;28;20206;-79
2022/07/15 05:06:05;;;;;;;23.75;8.70;;;;;;;33.29;40.93;100026.66;5047803;28;20199;-78
2022/07/15 05:08:32;;;;;;;17.85;7.80;;;;;;;32.86;41.15;100026.47;5056910;28;20659;-77
2022/07/15 05:10:59;;;;;;;22.83;9.85;;;;;;;33.29;41.83;100015.91;5048563;28;20199;-77
2022/07/15 05:13:25;;;;;;;14.30;6.90;;;;;;;33.93;40.87;100013.41;5021207;28;20203;-77
2022/07/15 05:15:52;;;;;;;16.80;6.78;;;;;;;34.33;40.68;100026.09;5049252;28;20202;-78
2022/07/15 05:18:19;;;;;;;14.20;5.90;;;;;;;34.58;37.82;100021.31;5052114;28;20210;-77
2022/07/15 05:20:47;;;;;;;19.33;8.10;;;;;;;34.22;41.55;100025.28;5052232;28;20741;-76
2022/07/15 05:23:16;;;;;;;16.85;8.40;;;;;;;33.29;43.89;100015.91;5052227;28;20701;-76
2022/07/15 05:25:43;;;;;;;15.02;7.40;;;;;;;33.37;43.20;100037.66;5052469;28;20235;-77
2022/07/15 05:28:11;;;;;;;18.13;7.00;;;;;;;33.94;43.24;100029.41;5046445;28;20202;-77
2022/07/15 05:30:38;;;;;;;9.90;6.25;;;;;;;34.60;39.30;100030.16;4997534;28;20744;-78
2022/07/15 05:33:05;;;;;;;11.20;5.53;;;;;;;34.46;39.08;100031.28;5049300;28;20671;-74
2022/07/15 05:35:32;;;;;;;14.27;4.85;;;;;;;34.94;38.60;100022.72;5051990;28;20671;-75
2022/07/15 05:38:00;;;;;;;13.70;5.22;;;;;;;34.57;37.62;100033.94;5052213;28;20199;-76
2022/07/15 05:40:27;;;;;;;10.73;4.57;;;;;;;33.36;39.15;100035.94;5052114;28;20222;-77
2022/07/15 05:42:54;;;;;;;9.38;4.97;;;;;;;33.52;39.72;100039.13;5016142;28;20203;-76
2022/07/15 05:45:21;;;;;;;9.02;4.95;;;;;;;33.65;39.74;100007.59;5051481;28;20298;-76
2022/07/15 05:47:49;;;;;;;11.85;5.20;;;;;;;33.93;40.25;100016.91;5052005;28;20206;-74
2022/07/15 05:50:17;;;;;;;9.57;5.47;;;;;;;34.25;39.45;100025.03;5051778;28;20207;-76
2022/07/15 05:52:44;;;;;;;13.07;4.78;;;;;;;34.33;39.36;100030.63;5051849;28;20210;-76
2022/07/15 05:55:12;;;;;;;7.70;4.63;;;;;;;34.49;38.60;100043.69;5016525;28;20226;-76
2022/07/15 05:57:39;;;;;;;11.23;4.80;;;;;;;32.86;39.16;100035.38;5051482;28;20198;-75
2022/07/15 06:00:08;;;;;;;5.38;4.68;;;;;;;32.17;40.84;100036.25;5051483;28;20984;-75
2022/07/15 06:02:35;;;;;;;15.70;5.22;;;;;;;31.90;41.48;100041.78;4968992;28;20212;-75
2022/07/15 06:05:02;;;;;;;8.90;5.03;;;;;;;31.81;42.31;100037.13;5045591;28;20207;-76
2022/07/15 06:07:29;;;;;;;9.00;4.95;;;;;;;31.49;42.03;100035.88;5032841;28;20655;-75
2022/07/15 06:09:56;;;;;;;6.63;4.30;;;;;;;31.52;40.57;100042.88;5032915;28;20214;-72
2022/07/15 06:12:24;;;;;;;8.15;4.07;;;;;;;30.74;41.83;100036.75;5051285;28;20214;-71
2022/07/15 06:14:51;;;;;;;5.13;3.90;;;;;;;30.54;41.01;100051.47;5032826;28;20591;-73
2022/07/15 06:17:18;;;;;;;6.82;4.38;;;;;;;30.15;43.26;100048.75;5051467;28;20199;-76
2022/07/15 06:19:44;;;;;;;7.28;4.22;;;;;;;30.47;44.38;100042.16;5051564;28;20210;-76
2022/07/15 06:22:11;;;;;;;6.57;4.90;;;;;;;30.38;44.09;100034.72;5051197;28;20222;-75
2022/07/15 06:24:38;;;;;;;8.77;5.88;;;;;;;30.56;44.18;100036.19;5051328;28;20234;-76
2022/07/15 06:27:05;;;;;;;10.30;6.57;;;;;;;30.65;46.85;100043.59;5051131;28;20210;-76
2022/07/15 06:29:33;;;;;;;20.10;8.57;;;;;;;29.99;46.87;100046.25;5050976;28;20566;-75
2022/07/15 06:32:00;;;;;;;21.83;12.30;;;;;;;29.25;49.99;100046.50;5051411;28;20253;-72
2022/07/15 06:34:27;;;;;;;28.15;12.23;;;;;;;29.50;51.23;100046.69;5051207;28;20203;-75
2022/07/15 06:36:54;;;;;;;26.80;12.63;;;;;;;29.66;53.08;100043.91;5051350;28;20301;-77
2022/07/15 06:39:21;;;;;;;8.10;5.68;;;;;;;29.70;46.53;100037.41;5050320;28;20920;-76
2022/07/15 06:41:49;;;;;;;9.73;4.82;;;;;;;29.43;47.46;100032.00;5050450;28;20231;-75
2022/07/15 06:44:16;;;;;;;13.52;8.05;;;;;;;29.58;47.91;100035.53;5050111;28;20207;-75
2022/07/15 06:46:44;;;;;;;22.33;9.65;;;;;;;29.57;49.15;100038.31;5050492;28;20207;-75
2022/07/15 06:49:11;;;;;;;22.27;10.20;;;;;;;29.49;49.18;100042.34;5050129;28;20286;-75
2022/07/15 06:51:37;;;;;;;18.85;9.95;;;;;;;28.70;50.56;100040.16;5049952;28;20655;-76
2022/07/15 06:54:04;;;;;;;11.82;6.38;;;;;;;28.65;51.00;100013.69;5050308;28;20227;-74
2022/07/15 06:56:31;;;;;;;20.25;11.27;;;;;;;28.84;51.69;100041.03;5050066;28;20198;-77
2022/07/15 06:58:58;;;;;;;26.95;11.73;;;;;;;29.18;52.28;100038.97;5050267;28;20206;-76
2022/07/15 07:01:25;;;;;;;21.40;10.18;;;;;;;29.08;51.77;100030.66;5049827;28;20226;-77
2022/07/15 07:03:53;;;;;;;23.00;9.82;;;;;;;29.19;51.90;100038.00;5036055;28;20206;-76
2022/07/15 07:06:20;;;;;;;15.57;8.18;;;;;;;28.94;50.24;100034.19;5050189;28;20195;-77
2022/07/15 07:08:47;;;;;;;19.58;7.55;;;;;;;28.93;50.13;100023.63;5049592;28;20198;-76
2022/07/15 07:11:15;;;;;;;18.67;8.52;;;;;;;29.14;50.82;100037.44;5049854;28;20206;-76
2022/07/15 07:13:41;;;;;;;15.85;7.22;;;;;;;29.27;52.24;100035.75;5026192;28;20206;-77
2022/07/15 07:16:08;;;;;;;24.73;9.40;;;;;;;29.26;51.73;100039.34;5049839;28;20202;-77
2022/07/15 07:18:36;;;;;;;23.85;9.10;;;;;;;28.75;51.74;99961.53;5050058;28;20211;-77
2022/07/15 07:21:04;;;;;;;15.70;7.82;;;;;;;29.65;50.84;100041.34;5049589;28;20218;-75
2022/07/15 07:23:31;;;;;;;14.40;7.65;;;;;;;29.76;50.12;100034.34;5049670;28;20206;-79
2022/07/15 07:25:58;;;;;;;15.88;7.22;;;;;;;30.01;49.23;100029.16;5050038;28;20690;-78
2022/07/15 07:28:25;;;;;;;11.70;6.95;;;;;;;30.10;48.11;100030.38;5049765;28;20198;-77
2022/07/15 07:30:54;;;;;;;13.70;6.43;;;;;;;30.02;48.34;100030.88;5053418;28;20199;-78
2022/07/15 07:33:22;;;;;;;12.50;5.25;;;;;;;30.37;46.19;100041.03;5052445;28;20585;-78
2022/07/15 07:35:49;;;;;;;11.32;5.13;;;;;;;30.22;45.72;100036.69;5050684;28;20210;-78
2022/07/15 07:38:17;;;;;;;6.15;5.55;;;;;;;30.26;46.64;100022.16;5050730;28;20214;-78
2022/07/15 07:40:47;;;;;;;10.90;5.40;;;;;;;30.21;46.41;100038.53;5050285;28;20626;-76
2022/07/15 07:43:15;;;;;;;12.00;5.18;;;;;;;30.04;47.29;100035.28;5015769;28;20671;-77
2022/07/15 07:45:42;;;;;;;15.82;4.25;;;;;;;30.04;47.00;100016.53;5049660;28;20195;-78
2022/07/15 07:48:08;;;;;;;12.27;3.28;;;;;;;30.07;45.48;100017.19;5049400;28;20198;-77
2022/07/15 07:50:35;;;;;;;7.70;3.65;;;;;;;30.00;46.13;100043.47;5052109;28;20210;-77
2022/07/15 07:53:02;;;;;;;10.43;3.92;;;;;;;29.95;45.92;100039.41;5053064;28;20670;-77
2022/07/15 07:55:31;;;;;;;13.30;3.35;;;;;;;30.11;46.09;100033.91;5054014;28;20723;-77
2022/07/15 07:57:59;;;;;;;7.20;3.60;;;;;;;30.15;46.14;100036.25;5049050;28;20289;-77
2022/07/15 08:00:27;;;;;;;6.65;2.83;;;;;;;30.00;44.55;100018.56;5053367;28;20218;-77
2022/07/15 08:02:55;;;;;;;4.38;2.45;;;;;;;30.23;43.34;100041.09;5043009;28;20231;-77
2022/07/15 08:05:22;;;;;;;5.97;2.67;;;;;;;30.20;42.89;100025.25;5050184;28;20202;-77
2022/07/15 08:07:49;;;;;;;5.40;2.65;;;;;;;30.34;43.90;100019.84;5053769;28;20209;-77
2022/07/15 08:10:19;;;;;;;13.00;2.60;;;;;;;30.40;43.62;100030.97;5053334;28;20844;-78
2022/07/15 08:12:47;;;;;;;14.55;3.08;;;;;;;30.58;43.56;100033.38;5053185;28;20286;-77
2022/07/15 08:15:15;;;;;;;3.08;2.40;;;;;;;30.73;43.09;100033.22;5039171;28;20204;-76
2022/07/15 08:17:42;;;;;;;5.03;3.03;;;;;;;30.75;44.07;100015.19;4998872;28;20207;-77
2022/07/15 08:20:10;;;;;;;7.30;3.08;;;;;;;30.97;43.50;100031.53;5045323;28;20207;-77
2022/07/15 08:22:38;;;;;;;7.82;2.92;;;;;;;30.78;44.00;100020.38;5053622;28;20219;-77
2022/07/15 08:25:06;;;;;;;6.10;2.58;;;;;;;30.79;44.13;100030.09;5053302;28;20207;-78
2022/07/15 08:27:32;;;;;;;6.38;3.03;;;;;;;30.87;41.73;100040.28;5017818;28;20202;-77
2022/07/15 08:30:01;;;;;;;5.25;3.00;;;;;;;30.91;42.03;100031.94;5053345;28;20210;-77
2022/07/15 08:32:27;;;;;;;6.45;2.92;;;;;;;31.07;41.21;100041.63;5053245;28;20199;-78
2022/07/15 08:34:54;;;;;;;6.78;3.08;;;;;;;31.01;40.22;100020.59;5053083;28;20199;-77
2022/07/15 08:37:21;;;;;;;7.22;3.72;;;;;;;31.17;41.05;100037.31;5052733;28;20198;-79
2022/07/15 08:39:48;;;;;;;4.00;3.45;;;;;;;30.97;41.18;100028.00;5052962;28;20248;-78
2022/07/15 08:42:15;;;;;;;6.25;3.88;;;;;;;30.95;41.67;100033.44;5052637;28;20761;-77
2022/07/15 08:44:42;;;;;;;6.18;3.97;;;;;;;31.10;41.96;100033.38;5052397;28;20214;-77
2022/07/15 08:47:11;;;;;;;7.72;4.30;;;;;;;31.30;42.24;100032.78;5017618;28;20250;-78
2022/07/15 08:49:40;;;;;;;11.75;3.75;;;;;;;31.12;41.12;100016.22;5016969;28;20203;-76
2022/07/15 08:52:07;;;;;;;5.68;3.67;;;;;;;31.17;41.85;100030.16;5052911;28;20221;-78
2022/07/15 08:54:35;;;;;;;9.13;4.35;;;;;;;31.20;41.49;100029.94;5052733;28;20734;-78
2022/07/15 08:57:02;;;;;;;8.75;4.18;;;;;;;31.17;41.48;100026.59;5052560;28;20202;-78
2022/07/15 08:59:30;;;;;;;7.53;3.72;;;;;;;31.26;41.46;100017.91;5052636;28;20206;-78
2022/07/15 09:01:57;;;;;;;10.45;4.57;;;;;;;31.32;40.79;100010.28;5049703;28;20285;-78
2022/07/15 09:04:25;;;;;;;11.82;4.40;;;;;;;31.71;40.45;100016.44;5032470;28;20199;-78
2022/07/15 09:06:52;;;;;;;5.40;4.13;;;;;;;31.68;39.43;100022.88;5009818;28;20204;-78
2022/07/15 09:09:27;;;;;;;5.53;3.83;;;;;;;31.30;39.92;99987.25;5051888;28;20286;-76
2022/07/15 09:11:59;;;;;;;6.72;3.53;;;;;;;31.54;39.89;100014.97;5033251;28;20198;-77
2022/07/15 09:14:28;;;;;;;5.95;2.97;;;;;;;31.50;38.78;100004.56;5051903;28;20210;-76
2022/07/15 09:17:23;;;;;;;4.78;2.58;;;;;;;31.59;38.01;100012.84;5052391;28;20237;-77
2022/07/15 09:20:08;;;;;;;3.30;2.40;;;;;;;31.75;36.61;100008.03;5010416;28;20208;-77
2022/07/15 09:22:49;;;;;;;10.68;2.63;;;;;;;32.07;36.46;100008.38;5010052;28;20232;-77
2022/07/15 09:25:16;;;;;;;3.83;2.25;;;;;;;31.99;35.44;100009.91;5010332;28;20204;-76
2022/07/15 09:27:45;;;;;;;5.38;1.75;;;;;;;31.84;33.69;100007.38;5010084;28;20204;-77
2022/07/15 09:36:05;;;;;;;3.53;1.75;;;;;;;31.73;34.32;99951.00;5010285;28;20722;-77
2022/07/15 09:38:34;;;;;;;2.78;1.75;;;;;;;31.98;33.67;99992.06;5010009;28;20203;-78
2022/07/15 09:41:02;;;;;;;7.55;1.80;;;;;;;31.80;34.11;99979.06;4977863;28;20205;-76
2022/07/15 09:43:29;;;;;;;3.10;1.60;;;;;;;32.18;33.67;99988.78;5009791;28;20204;-76
2022/07/15 09:45:59;;;;;;;3.40;2.45;;;;;;;32.38;32.88;99990.81;5010048;28;20208;-77
2022/07/15 09:48:28;;;;;;;2.10;2.00;;;;;;;32.53;32.87;99999.53;5010216;28;20196;-76
2022/07/15 09:51:01;;;;;;;4.93;2.33;;;;;;;32.46;33.78;99988.41;5010218;28;20584;-75
2022/07/15 09:53:28;;;;;;;2.28;1.60;;;;;;;32.59;33.07;99980.28;5010044;28;20236;-75
2022/07/15 09:55:56;;;;;;;6.90;1.95;;;;;;;32.75;32.78;99973.56;5036584;28;20238;-75
2022/07/15 09:58:23;;;;;;;2.00;1.65;;;;;;;32.66;32.93;99962.72;5052067;28;20207;-76
2022/07/15 10:00:51;;;;;;;1.58;1.50;;;;;;;32.71;32.51;99982.84;5051963;28;20202;-75
2022/07/15 10:03:18;;;;;;;7.45;2.33;;;;;;;32.54;33.57;99963.63;5017005;28;20226;-74
2022/07/15 10:05:47;;;;;;;5.60;1.80;;;;;;;32.45;33.15;99967.91;5051911;28;20199;-75
2022/07/15 10:08:19;;;;;;;7.80;2.05;;;;;;;32.28;34.13;99966.50;5052014;28;20202;-73
2022/07/15 10:10:48;;;;;;;1.92;1.75;;;;;;;32.02;34.16;99900.53;5051953;28;20293;-75
2022/07/15 10:13:29;;;;;;;2.65;1.63;;;;;;;32.47;33.29;99962.38;5050669;28;20604;-75
2022/07/15 10:16:10;;;;;;;4.88;1.90;;;;;;;32.59;33.86;99964.16;5051631;28;20242;-76
2022/07/15 10:18:54;;;;;;;2.55;1.63;;;;;;;32.14;33.60;99960.47;5051680;28;20201;-76
2022/07/15 10:21:30;;;;;;;2.90;1.65;;;;;;;32.08;33.23;99951.06;5051425;28;20594;-75
2022/07/15 10:24:27;;;;;;;5.90;2.03;;;;;;;32.38;33.22;99953.22;5051608;28;20206;-74
2022/07/15 10:27:06;;;;;;;1.70;1.48;;;;;;;32.26;32.30;99943.44;5051667;28;20199;-75
2022/07/15 10:29:33;;;;;;;2.55;1.60;;;;;;;32.51;32.89;99948.63;5021183;28;20198;-73
2022/07/15 10:32:02;;;;;;;9.43;2.15;;;;;;;32.58;32.59;99946.31;5061889;28;20202;-74
2022/07/15 10:34:33;;;;;;;1.65;1.55;;;;;;;32.49;32.03;99945.22;5063049;28;20622;-75
2022/07/15 10:37:04;;;;;;;3.55;1.70;;;;;;;32.55;31.27;99911.63;5062550;28;20203;-74
2022/07/15 10:40:07;;;;;;;2.55;1.60;;;;;;;32.75;31.85;99956.59;5070866;28;20202;-74
2022/07/15 10:42:59;;;;;;;1.67;1.58;;;;;;;32.97;30.92;99950.38;4987005;28;20224;-74
2022/07/15 10:45:26;;;;;;;1.67;1.30;;;;;;;32.88;31.13;99942.09;4893917;29;20672;-75
2022/07/15 10:48:31;;;;;;;1.85;1.45;;;;;;;33.08;30.83;99945.00;4894044;29;20615;-74
2022/07/15 10:50:58;;;;;;;2.10;1.20;;;;;;;32.95;30.12;99914.75;4874616;29;20200;-74
2022/07/15 10:53:27;;;;;;;4.43;1.45;;;;;;;33.22;30.07;99937.59;4874110;29;20224;-75
2022/07/15 10:55:54;;;;;;;2.53;1.65;;;;;;;32.72;30.16;99861.03;4874618;29;20205;-75
2022/07/15 10:58:22;;;;;;;11.02;1.60;;;;;;;33.18;30.64;99925.38;4874922;29;20216;-74
2022/07/15 11:00:49;;;;;;;4.25;1.35;;;;;;;33.34;31.37;99927.69;4875213;29;20228;-74
2022/07/15 11:03:18;;;;;;;2.35;1.20;;;;;;;33.03;30.83;99923.06;4874827;29;20808;-74
2022/07/15 11:06:05;;;;;;;1.75;1.25;;;;;;;33.24;31.01;99924.03;4875090;29;20213;-74
2022/07/15 11:08:55;;;;;;;2.47;1.40;;;;;;;33.10;31.08;99926.97;4874924;29;20217;-75
2022/07/15 11:11:49;;;;;;;3.08;1.50;;;;;;;33.51;30.83;99923.59;4875041;29;20205;-77
2022/07/15 11:14:43;;;;;;;1.55;1.30;;;;;;;33.67;30.77;99919.56;4828697;29;20212;-76
2022/07/15 11:17:10;;;;;;;2.05;1.80;;;;;;;33.61;30.50;99924.53;4874974;29;20237;-77
2022/07/15 11:19:37;;;;;;;3.70;1.65;;;;;;;33.56;30.26;99910.63;4866224;29;20199;-76
2022/07/15 11:22:04;;;;;;;1.50;1.40;;;;;;;33.16;29.44;99934.53;4954364;28;20658;-76
2022/07/15 11:24:32;;;;;;;1.42;1.33;;;;;;;32.95;29.46;99888.72;4999405;28;20205;-76
2022/07/15 11:27:01;;;;;;;3.70;1.30;;;;;;;33.45;29.48;99924.97;5016313;28;20206;-75
2022/07/15 11:29:43;;;;;;;1.50;1.30;;;;;;;33.40;29.77;99890.38;5065038;28;20717;-76
2022/07/15 11:32:10;;;;;;;1.40;1.30;;;;;;;33.47;29.25;99912.25;5062190;28;20222;-77
2022/07/15 11:34:40;;;;;;;1.55;1.45;;;;;;;33.72;29.07;99916.47;5063403;28;20256;-76
2022/07/15 11:37:07;;;;;;;5.25;1.60;;;;;;;33.57;29.46;99918.56;5066428;28;20198;-77